オスロ空港の過去48時間の天気

オスロ空港 (Oslo / Gardermoen)

現在時刻: 1/18 11:26 CET (1/18 10:26 UTC) 以下の時間は現地時間です。

過去48時間のMETAR気象情報
時間 風向 風速(m/s) 視程 気温(℃) 湿度(%) 気圧(hPa) 天気現象
18 10:50 静穏 0 500m 2 100 1001
18 10:20 不定 1 500m 2 100 1001
18 09:50 1 500m 2 100 1001
18 09:20 北北東 1 550m 2 100 1001 弱い雨 霧
18 08:50 不定 1 600m 2 100 1001
18 08:20 1 700m 2 100 1001 弱い雨 霧
18 07:50 不定 1 700m 2 100 1001 弱い雨 霧
18 07:20 南西 1 600m 2 100 1001 弱い雨 霧
18 06:50 1 900m 4 100 1001 弱い雨 霧
18 06:20 2 1100m 3 100 1002 散在した霧 弱い雨
18 05:50 南南西 2 1800m 3 100 1002 弱い雨 もや
18 05:20 静穏 0 2300m 2 100 1002 散在した霧 弱い雨
18 04:50 不定 1 1400m 1 100 1002 散在した霧 弱い雨
18 04:20 北東 1 2100m 1 100 1002 弱い霧雨 もや
18 03:50 静穏 0 1200m 2 100 1002 弱い雨 もや
18 03:20 静穏 0 1100m 2 100 1002 弱い雨 もや
18 02:50 不定 1 600m 2 100 1002
18 02:20 静穏 0 800m 2 100 1002 弱い雨 霧
18 01:50 不定 1 600m 3 100 1003
18 01:20 静穏 0 700m 3 100 1003 弱い雨 霧
18 00:50 北西 1 600m 3 100 1003 弱い雨 霧
18 00:20 北西 1 600m 3 100 1003 弱い雨 霧
17 23:50 静穏 0 650m 3 100 1004 弱い雨 霧
17 23:20 静穏 0 700m 4 100 1004 弱い雨 霧
17 22:50 2 900m 4 100 1004 弱い雨 霧
17 22:20 3 5000m 4 100 1004 散在した霧 弱い雨
17 21:50 4 2500m 4 100 1005 弱い雨 もや
17 21:20 2 3500m 4 100 1005 散在した霧 弱い雨
17 20:50 南南東 3 7000m 4 100 1005 散在した霧 弱い雨
17 20:20 南南西 2 7000m 4 100 1005 散在した霧 弱い雨
17 19:50 3 8000m 4 100 1005 散在した霧 弱い雨
17 19:20 4 9000m 4 100 1006 弱い雨
17 18:50 南南東 3 7000m 4 100 1006 弱い雨 弱い霧雨
17 18:20 南南東 4 7000m 4 100 1006 弱い雨 弱い霧雨
17 17:50 4 6000m 4 100 1006 弱い雨 弱い霧雨 もや
17 17:20 南南東 3 5000m 5 93 1006 弱い雨 弱い霧雨 もや
17 16:50 南南東 5 8000m 5 93 1006 弱い雨 弱い霧雨
17 16:20 南南東 5 8000m 5 93 1007 弱い雨 弱い霧雨
17 15:50 南南東 5 7000m 5 100 1007 弱い雨 弱い霧雨
17 15:20 南南東 5 8000m 5 100 1007 弱い雨 弱い霧雨
17 14:50 南南東 5 7000m 5 100 1007 弱い雨 弱い霧雨
17 14:20 南南東 6 4000m 5 100 1007 弱い雨 弱い霧雨 もや
17 13:50 6 7000m 5 100 1008 弱い雨 弱い霧雨
17 13:20 6 4000m 5 100 1008 弱い雨 弱い霧雨 もや
17 12:50 6 5000m 5 100 1008 弱い雨 弱い霧雨 もや
17 12:20 7 7000m 5 100 1008 弱い雨 弱い霧雨
17 11:50 6 5000m 5 100 1008 弱い雨 弱い霧雨 もや
17 11:20 7 7000m 5 100 1008 弱い霧雨
17 10:50 6 8000m 5 100 1008 弱い霧雨
17 10:20 6 9000m 5 100 1008 弱い霧雨
17 09:50 7 9000m 5 93 1008 弱い雨 弱い霧雨
17 09:20 7 6000m 5 93 1008 弱い雨 弱い霧雨
17 08:50 7 6000m 5 93 1008 弱い雨 弱い霧雨
17 08:20 6 6000m 4 100 1008 弱い雨
17 07:50 5 10km以上 4 100 1008 弱い雨
17 07:20 5 10km以上 4 100 1009 弱い雨
17 06:50 6 10km以上 4 93 1009 弱い雨
17 06:20 南南東 5 8000m 4 93 1009 弱い雨
17 05:50 南南東 5 9000m 4 93 1010 弱い雨
17 05:20 南南東 5 10km以上 4 93 1010 弱い雨
17 04:50 南南東 5 10km以上 4 93 1011 弱い雨
17 04:20 南南東 6 10km以上 4 93 1011 弱い雨
17 03:50 5 10km以上 4 87 1011 弱い雨
17 03:20 6 10km以上 4 93 1012 弱い雨
17 02:50 5 10km以上 4 93 1012
17 02:20 5 10km以上 4 93 1013 弱い雨
17 01:50 4 10km以上 4 93 1013
17 01:20 2 10km以上 3 100 1013
17 00:50 4 8000m 3 93 1014 弱い雨
17 00:20 4 10km以上 3 93 1014 弱い雨
16 23:50 南南西 5 10km以上 3 87 1014
16 23:20 南南西 6 10km以上 3 87 1015
16 22:50 5 10km以上 2 87 1015
16 22:20 6 10km以上 3 81 1015
16 21:50 南南西 5 10km以上 3 81 1015
16 21:20 南南西 2 10km以上 3 81 1014
16 20:50 南南西 3 10km以上 2 81 1014
16 20:20 南南西 4 10km以上 4 70 1014
16 19:50 南東 2 10km以上 4 75 1014
16 19:20 南南西 3 10km以上 3 81 1014
16 18:50 5 10km以上 3 81 1014
16 18:20 6 10km以上 3 81 1013
16 17:50 5 10km以上 3 81 1013
16 17:20 5 10km以上 3 81 1013
16 16:50 南南西 5 10km以上 4 75 1012
16 16:20 7 10km以上 5 75 1012
16 15:50 南南東 7 10km以上 5 75 1011
16 15:20 南南東 7 10km以上 5 75 1010
16 14:50 5 10km以上 5 75 1010
16 14:20 6 10km以上 5 81 1009
16 13:50 6 10km以上 6 76 1009
16 13:20 南南西 5 10km以上 6 76 1009
16 12:50 南南西 5 10km以上 5 81 1008
16 12:20 南南西 5 10km以上 5 81 1008
16 11:50 6 10km以上 4 87 1007
ENGM 180950Z 00000KT 0500 R19R/0750N R01R/0650N R19L/0700D R01L/0550N FG FEW002 BKN005 02/02 Q1001 TEMPO 0800 FG
ENGM 180920Z VRB02KT 0500 R19R/0650N R01R/1200D R19L/1000U R01L/0650N FG VV004 02/02 Q1001 TEMPO 0800 FG
ENGM 180850Z 35002KT 0500 R19R/0650N R01R/0800U R19L/0600N R01L/0650U FG VV003 02/02 Q1001 TEMPO 0600 FG
ENGM 180820Z 02002KT 0550 R19R/0750N R01R/0500N R19L/0700N R01L/1000U -RA FG VV003 02/02 Q1001 TEMPO 0300 FG VV001
ENGM 180750Z VRB01KT 0600 R19R/1400U R01R/0550N R19L/1200D R01L/0700N FG VV002 02/02 Q1001 TEMPO 0500 FG VV001
ENGM 180720Z 35002KT 0700 R19R/1000D R01R/0800N R19L/0800N R01L/0750N -RA FG VV002 02/02 Q1001 TEMPO 0500 FG VV001
ENGM 180650Z VRB02KT 0700 R19R/1300N R01R/0750N R19L/0900N R01L/0900N -RA FG VV002 02/02 Q1001 TEMPO 0500 FG VV001
ENGM 180620Z 22002KT 0600 R19R/0800N R01R/0700N R19L/0800U R01L/0750N -RA FG VV002 02/02 Q1001 TEMPO 0500 FG VV001
ENGM 180550Z 19002KT 0900 0550S R19R/1200D R01R/1000D R19L/1200N R01L/0650N -RA FG VV002 04/04 Q1001 TEMPO 0500 FG VV001
ENGM 180520Z 19003KT 1100 0800S R19R/P2000N R01R/1000N R19L/1200N R01L/1200D -RA BCFG VV003 03/03 Q1002 TEMPO 0500 FG
ENGM 180450Z 20003KT 160V220 1800 1100SE R19R/2000U R01R/1500D R19L/P2000N R01L/1400U -RA BR SCT003 BKN005 03/03 Q1002 TEMPO 1200 BR BKN003
ENGM 180420Z 00000KT 2300 0800NW R19R/1500D R01R/P2000N R19L/P2000N R01L/1700U -RA BCFG SCT002 BKN004 02/02 Q1002
ENGM 180350Z VRB01KT 1400 0700NE R19R/2000D R01R/P2000N R19L/0900D R01L/1100N -RA BCFG FEW006 BKN009 01/01 Q1002
ENGM 180320Z 04002KT 2100 1100SW R19R/P2000N R01R/P2000N R19L/1900U R01L/1300N -DZ BR FEW001 SCT009 BKN041 01/01 Q1002
ENGM 180250Z 00000KT 1200 R19R/2000D R01R/1000N R19L/1200U R01L/1900D -RA BR FEW002 BKN010 02/02 Q1002
ENGM 180220Z 00000KT 1100 0650S R19R/1900U R01R/0750N R19L/0900N R01L/1700U -RA BR FEW003 BKN009 02/02 Q1002
ENGM 180150Z VRB01KT 0600 R19R/0800U R01R/0650N R19L/0600N R01L/0650N FG VV002 02/02 Q1002
ENGM 180120Z 00000KT 0800 0400SE R19R/1100D R01R/0450N R19L/0800N R01L/1100N -RA FG VV002 02/02 Q1002
ENGM 180050Z VRB01KT 0600 R19R/1200D R01R/0700D R19L/0800U R01L/0800N FG VV002 03/03 Q1003
ENGM 180020Z 00000KT 0700 R19R/1300U R01R/0750N R19L/0800N R01L/1100U -RA FG VV003 03/03 Q1003
ENGM 172350Z 32002KT 0600 R19R/0900U R01R/0700D R19L/0750N R01L/0750N -RA FG VV002 03/03 Q1003
ENGM 172320Z 32002KT 0600 R19R/1000N R01R/0700N R19L/0900N R01L/0650N -RA FG VV002 03/03 Q1003
ENGM 172250Z 00000KT 0650 R19R/1200U R01R/0800N R19L/1000N R01L/0750N -RA FG VV002 03/03 Q1004
ENGM 172220Z 00000KT 0700 R19R/1200D R01R/0600N R19L/1000U R01L/0800U -RA FG VV002 04/04 Q1004
ENGM 172150Z 19004KT 0900 R19R/1800D R01R/0800D R19L/1800D R01L/1500D -RA FG VV003 04/04 Q1004 TEMPO 0500 FG VV001
ENGM 172120Z 17006KT 5000 1200SE R19R/P2000N R01R/P2000N R19L/P2000N R01L/P2000N -RA BCFG BKN002 04/04 Q1004 TEMPO 4000 RA BR BKN001
ENGM 172050Z 17007KT 2500 1300NE R19R/P2000N R01R/1100U R19L/1900D R01L/P2000N -RA BR BKN002 04/04 Q1005 TEMPO 4000 RA BR BKN001
ENGM 172020Z 19004KT 3500 1100S R19R/P2000N R01R/1300D R19L/P2000N R01L/1900N -RA BCFG BKN002 04/04 Q1005 TEMPO 2000 RA BR BKN001
ENGM 171950Z 16005KT 7000 1500SE -RA BCFG BKN002 04/04 Q1005
ENGM 171920Z 20004KT 7000 1700NW -RA BCFG BKN001 04/04 Q1005 TEMPO 4000 RA BR BKN002
ENGM 171850Z 19005KT 8000 1500SW -RA BCFG BKN001 04/04 Q1005 TEMPO 4000 RA BR BKN002
ENGM 171820Z 17008KT 9000 -RA BKN002 04/04 Q1006 TEMPO 4000 RA BR
ENGM 171750Z 16006KT 7000 -RADZ BKN002 04/04 Q1006 TEMPO 4000 RA BR
ENGM 171720Z 16008KT 7000 -RADZ BKN002 04/04 Q1006 TEMPO 4000 RA BR
ENGM 171650Z 17008KT 6000 -RADZ BR SCT002 BKN004 04/04 Q1006 TEMPO 4000 RA BR
ENGM 171620Z 16006KT 5000 -RADZ BR BKN003 05/04 Q1006 TEMPO 4000 RA BR
ENGM 171550Z 16009KT 8000 -RADZ BKN003 05/04 Q1006 TEMPO 4000 RA BR
ENGM 171520Z 16009KT 8000 -RADZ BKN003 05/04 Q1007 TEMPO 4000 RA BR
ENGM 171450Z 16009KT 7000 -RADZ BKN003 05/05 Q1007 TEMPO 4000 RA BR
ENGM 171420Z 16009KT 8000 -RADZ OVC002 05/05 Q1007 NOSIG
ENGM 171350Z 16010KT 7000 -RADZ OVC002 05/05 Q1007 TEMPO 4000 RA BR
ENGM 171320Z 16011KT 4000 -RADZ BR BKN003 05/05 Q1007 TEMPO 6000 RA
ENGM 171250Z 17012KT 7000 -RADZ BKN002 05/05 Q1008 TEMPO 4000 RADZ BR
ENGM 171220Z 17012KT 4000 -RADZ BR BKN002 05/05 Q1008 TEMPO 2500 RADZ BR
ENGM 171150Z 17011KT 5000 -RADZ BR FEW002 BKN004 05/05 Q1008 TEMPO 4000 -RADZ BR
ENGM 171120Z 18013KT 7000 -RADZ OVC003 05/05 Q1008 TEMPO 4000 -RADZ BR
ENGM 171050Z 18012KT 5000 -RADZ BR OVC003 05/05 Q1008 TEMPO 4000 -RADZ BR
ENGM 171020Z 17014KT 7000 -DZ FEW002 OVC004 05/05 Q1008 TEMPO 4000 -RADZ BR
ENGM 170950Z 17012KT 8000 -DZ OVC003 05/05 Q1008
ENGM 170920Z 17012KT 9000 -DZ BKN004 05/05 Q1008 NOSIG
ENGM 170850Z 17013KT 9000 -RADZ BKN004 05/04 Q1008 TEMPO BKN008
ENGM 170820Z 18013KT 6000 -RADZ OVC004 05/04 Q1008 TEMPO 4000 -RADZ BR
ENGM 170750Z 18014KT 6000 -RADZ OVC004 05/04 Q1008 TEMPO 4000 -RADZ BR
ENGM 170720Z 18012KT 6000 -RA OVC004 04/04 Q1008 TEMPO 4000 -RADZ BR
ENGM 170650Z 17010KT 9999 -RA OVC004 04/04 Q1008 TEMPO 4000 -RADZ BR
ENGM 170620Z 17010KT 9999 -RA OVC004 04/04 Q1009 NOSIG
ENGM 170550Z 17011KT 9999 -RA OVC003 04/03 Q1009 NOSIG
ENGM 170520Z 16010KT 8000 -RA BKN005 04/03 Q1009 RERA NOSIG
ENGM 170450Z 16010KT 9000 -RA BKN005 04/03 Q1010 TEMPO RA
ENGM 170420Z 16009KT 9999 8000NE -RA BKN006 04/03 Q1010
ENGM 170350Z 16010KT 9999 -RA BKN007 04/03 Q1011
ENGM 170320Z 16011KT 9999 -RA SCT010 OVC012 04/03 Q1011
ENGM 170250Z 17010KT 9999 -RA BKN015 04/02 Q1011
ENGM 170220Z 17011KT 9999 -RA BKN012 04/03 Q1012
ENGM 170150Z 17010KT 9999 BKN014 04/03 Q1012
ENGM 170120Z 18010KT 9999 -RA BKN013 04/03 Q1013
ENGM 170050Z 19008KT 9999 BKN011 04/03 Q1013
ENGM 170020Z 18004KT 9999 FEW006 BKN009 03/03 Q1013
ENGM 162350Z 17007KT 8000 -RA SCT005 BKN008 03/02 Q1014
ENGM 162320Z 19007KT 9999 -RA BKN007 03/02 Q1014
ENGM 162250Z 20009KT 9999 SCT010 OVC140 03/01 Q1014
ENGM 162220Z 20011KT 9999 FEW015 BKN045 03/01 Q1015
ENGM 162150Z 18010KT 9999 FEW015 BKN160 02/00 Q1015 TEMPO BKN008
ENGM 162120Z 18011KT CAVOK 03/00 Q1015 TEMPO BKN008
ENGM 162050Z 21010KT CAVOK 03/M00 Q1015 NOSIG
ENGM 162020Z 20003KT 130V260 CAVOK 03/M00 Q1014 NOSIG
ENGM 161950Z 21006KT CAVOK 02/M01 Q1014 NOSIG
ENGM 161920Z 21008KT CAVOK 04/M01 Q1014 NOSIG
ENGM 161850Z 13004KT 070V180 CAVOK 04/M00 Q1014 NOSIG
ENGM 161820Z 20006KT CAVOK 03/M00 Q1014 NOSIG
ENGM 161750Z 19010KT CAVOK 03/M00 Q1014 NOSIG
ENGM 161720Z 19011KT CAVOK 03/00 Q1013 NOSIG
ENGM 161650Z 18010KT CAVOK 03/00 Q1013 NOSIG
ENGM 161620Z 19009KT CAVOK 03/M00 Q1013 NOSIG
ENGM 161550Z 20010KT CAVOK 04/00 Q1012 NOSIG
ENGM 161520Z 19013KT CAVOK 05/01 Q1012 NOSIG
ENGM 161450Z 16013KT CAVOK 05/01 Q1011 NOSIG
ENGM 161420Z 16013KT CAVOK 05/01 Q1010 NOSIG
ENGM 161350Z 18010KT CAVOK 05/01 Q1010 NOSIG
ENGM 161320Z 18011KT CAVOK 05/02 Q1009 NOSIG
ENGM 161250Z 19012KT CAVOK 06/02 Q1009 NOSIG
ENGM 161220Z 20009KT CAVOK 06/02 Q1009 NOSIG
ENGM 161150Z 20009KT CAVOK 05/02 Q1008 NOSIG
ENGM 161120Z 20009KT CAVOK 05/02 Q1008 NOSIG
ENGM 161050Z 18011KT CAVOK 04/02 Q1007 NOSIG